createdAt,value
2018-11-29T00:01:26.721Z,99.90
2018-11-29T00:03:57.600Z,99.90
2018-11-29T00:06:28.712Z,99.90
2018-11-29T00:08:59.584Z,99.90
2018-11-29T00:11:29.512Z,99.90
2018-11-29T00:14:04.240Z,99.90
2018-11-29T00:16:34.156Z,99.90
2018-11-29T00:19:05.544Z,99.90
2018-11-29T00:21:35.504Z,99.90
2018-11-29T00:24:06.502Z,99.90
2018-11-29T00:26:36.367Z,99.90
2018-11-29T00:29:06.331Z,99.90
2018-11-29T00:31:37.367Z,99.90
2018-11-29T00:34:08.431Z,99.90
2018-11-29T00:36:42.248Z,99.90
2018-11-29T00:39:13.209Z,99.90
2018-11-29T00:41:45.175Z,99.90
2018-11-29T00:44:22.260Z,99.90
2018-11-29T00:46:53.222Z,99.90
2018-11-29T00:49:23.139Z,99.90
2018-11-29T00:51:58.532Z,99.90
2018-11-29T00:54:29.484Z,99.90
2018-11-29T00:57:04.576Z,99.90
2018-11-29T00:59:35.480Z,99.90
2018-11-29T01:02:06.416Z,99.90
2018-11-29T01:04:38.431Z,99.90
2018-11-29T01:07:09.280Z,99.90
2018-11-29T01:09:44.832Z,99.90
2018-11-29T01:12:16.722Z,99.90
2018-11-29T01:14:47.664Z,99.90
2018-11-29T01:17:17.532Z,99.90
2018-11-29T01:19:48.492Z,99.90
2018-11-29T01:22:23.100Z,99.90
2018-11-29T01:24:53.004Z,99.90
2018-11-29T01:27:25.932Z,99.90
2018-11-29T01:29:55.807Z,99.90
2018-11-29T01:32:25.699Z,99.90
2018-11-29T01:34:59.324Z,99.90
2018-11-29T01:37:29.248Z,99.90
2018-11-29T01:40:01.094Z,99.90
2018-11-29T01:42:32.952Z,99.90
2018-11-29T01:45:02.768Z,99.90
2018-11-29T01:47:32.708Z,99.90
2018-11-29T01:50:03.683Z,99.90
2018-11-29T01:52:34.584Z,99.90
2018-11-29T01:55:09.676Z,99.90
2018-11-29T01:57:41.544Z,99.90
2018-11-29T02:00:17.584Z,99.90
2018-11-29T02:02:51.084Z,99.90
2018-11-29T02:05:22.009Z,99.90
2018-11-29T02:07:56.969Z,99.90
2018-11-29T02:10:38.176Z,99.90
2018-11-29T02:13:10.145Z,99.90
2018-11-29T02:15:40.017Z,99.90
2018-11-29T02:18:11.921Z,99.90
2018-11-29T02:20:45.189Z,99.90
2018-11-29T02:23:16.417Z,99.90
2018-11-29T02:25:46.377Z,99.90
2018-11-29T02:28:16.845Z,99.90
2018-11-29T02:30:46.677Z,99.90
2018-11-29T02:33:17.629Z,99.90
2018-11-29T02:35:52.296Z,99.90
2018-11-29T02:38:22.189Z,99.90
2018-11-29T02:40:52.065Z,99.90
2018-11-29T02:43:21.993Z,99.90
2018-11-29T02:45:53.848Z,99.90
2018-11-29T02:48:23.750Z,99.90
2018-11-29T02:50:55.627Z,99.90
2018-11-29T02:53:25.557Z,99.90
2018-11-29T02:55:57.489Z,99.90
2018-11-29T02:58:29.749Z,99.90
2018-11-29T03:00:59.701Z,99.90
2018-11-29T03:03:31.641Z,99.90
2018-11-29T03:06:01.570Z,99.90
2018-11-29T03:08:33.389Z,99.90
2018-11-29T03:11:14.152Z,99.90
2018-11-29T03:13:44.058Z,99.90
2018-11-29T03:16:19.656Z,99.90
2018-11-29T03:18:49.590Z,99.90
2018-11-29T03:21:19.491Z,99.90
2018-11-29T03:23:50.413Z,99.90
2018-11-29T03:26:21.337Z,99.90
2018-11-29T03:28:55.973Z,99.90
2018-11-29T03:31:30.841Z,99.90
2018-11-29T03:34:10.656Z,99.90
2018-11-29T03:36:42.497Z,99.90
2018-11-29T03:39:12.378Z,99.90
2018-11-29T03:41:44.329Z,99.90
2018-11-29T03:44:21.691Z,99.90
2018-11-29T03:46:55.888Z,99.90
2018-11-29T03:49:26.828Z,99.90
2018-11-29T03:52:05.029Z,99.90
2018-11-29T03:54:34.936Z,99.90
2018-11-29T03:57:06.513Z,99.90
2018-11-29T03:59:36.424Z,99.90
2018-11-29T04:02:06.730Z,99.90
2018-11-29T04:04:41.728Z,99.90
2018-11-29T04:07:11.677Z,99.90
2018-11-29T04:09:42.617Z,99.90
2018-11-29T04:12:16.525Z,99.90
2018-11-29T04:14:49.949Z,99.90
2018-11-29T04:17:22.828Z,99.90
2018-11-29T04:19:58.409Z,99.90
2018-11-29T04:22:29.627Z,99.90
2018-11-29T04:25:17.738Z,99.90
2018-11-29T04:27:47.678Z,99.90
2018-11-29T04:30:17.989Z,99.90
2018-11-29T04:32:47.913Z,99.90
2018-11-29T04:35:21.385Z,99.90
2018-11-29T04:37:54.369Z,99.90
2018-11-29T04:40:25.310Z,99.90
2018-11-29T04:42:56.241Z,99.90
2018-11-29T04:45:43.594Z,99.90
2018-11-29T04:48:15.536Z,99.90
2018-11-29T04:50:55.502Z,99.90
2018-11-29T04:53:28.786Z,99.90
2018-11-29T04:56:03.530Z,99.90
2018-11-29T04:58:33.497Z,99.90
2018-11-29T05:01:05.361Z,99.90
2018-11-29T05:03:35.313Z,99.90
2018-11-29T05:06:10.362Z,99.90
2018-11-29T05:08:43.445Z,99.90
2018-11-29T05:11:14.357Z,99.90
2018-11-29T05:13:48.292Z,99.90
2018-11-29T05:16:18.201Z,99.90
2018-11-29T05:18:48.093Z,99.90
2018-11-29T05:21:23.521Z,99.90
2018-11-29T05:23:53.457Z,99.90
2018-11-29T05:26:24.402Z,99.90
2018-11-29T05:28:55.385Z,99.90
2018-11-29T05:31:25.361Z,99.90
2018-11-29T05:33:59.061Z,99.90
2018-11-29T05:36:30.065Z,99.90
2018-11-29T05:39:00.028Z,99.90
2018-11-29T05:41:35.953Z,99.90
2018-11-29T05:44:08.936Z,99.90
2018-11-29T05:46:39.893Z,99.90
2018-11-29T05:49:13.670Z,99.90
2018-11-29T05:51:45.632Z,99.90
2018-11-29T05:54:17.516Z,99.90
2018-11-29T05:56:49.549Z,99.90
2018-11-29T05:59:21.485Z,99.90
2018-11-29T06:01:53.534Z,99.90
2018-11-29T06:04:23.385Z,99.90
2018-11-29T06:06:58.389Z,99.90
2018-11-29T06:09:29.257Z,99.90
2018-11-29T06:11:59.265Z,99.90
2018-11-29T06:14:30.125Z,99.90
2018-11-29T06:17:05.407Z,99.90
2018-11-29T06:19:36.304Z,99.90
2018-11-29T06:22:09.628Z,99.90
2018-11-29T06:24:53.137Z,99.90
2018-11-29T06:27:26.825Z,99.90
2018-11-29T06:29:57.821Z,99.90
2018-11-29T06:32:28.725Z,99.90
2018-11-29T06:35:00.637Z,99.90
2018-11-29T06:37:31.513Z,99.90
2018-11-29T06:40:01.409Z,99.90
2018-11-29T06:42:33.304Z,99.90
2018-11-29T06:45:03.281Z,99.90
2018-11-29T06:47:45.649Z,99.90
2018-11-29T06:50:18.581Z,99.90
2018-11-29T06:52:51.736Z,99.90
2018-11-29T06:55:23.841Z,99.90
2018-11-29T06:57:55.820Z,99.90
2018-11-29T07:00:32.249Z,99.90
2018-11-29T07:03:03.101Z,99.90
2018-11-29T07:05:33.053Z,99.90
2018-11-29T07:08:05.197Z,99.90
2018-11-29T07:10:39.089Z,99.90
2018-11-29T07:13:10.953Z,99.90
2018-11-29T07:15:45.877Z,99.90
2018-11-29T07:18:20.549Z,99.90
2018-11-29T07:21:10.840Z,99.90
2018-11-29T07:23:41.790Z,99.90
2018-11-29T07:26:14.717Z,99.90
2018-11-29T07:28:50.074Z,99.90
2018-11-29T07:31:20.017Z,99.90
2018-11-29T07:33:49.885Z,99.90
2018-11-29T07:36:19.813Z,99.90
2018-11-29T07:38:53.501Z,99.90
2018-11-29T07:41:24.365Z,99.90
2018-11-29T07:43:55.256Z,99.90
2018-11-29T07:46:27.161Z,99.90
2018-11-29T07:48:58.181Z,99.90
2018-11-29T07:51:30.089Z,99.90
2018-11-29T07:54:08.212Z,99.90
2018-11-29T07:56:40.117Z,99.90
2018-11-29T07:59:21.887Z,99.90
2018-11-29T08:01:51.861Z,99.90
2018-11-29T08:04:21.704Z,99.90
2018-11-29T08:06:53.584Z,99.90
2018-11-29T08:09:23.661Z,99.90
2018-11-29T08:12:04.240Z,99.90
2018-11-29T08:14:34.106Z,99.90
2018-11-29T08:17:03.956Z,99.90
2018-11-29T08:19:35.804Z,99.90
2018-11-29T08:22:05.692Z,99.90
2018-11-29T08:24:41.088Z,99.90
2018-11-29T08:27:17.377Z,99.90
2018-11-29T08:29:47.264Z,99.90
2018-11-29T08:32:18.217Z,99.90
2018-11-29T08:34:50.105Z,99.90
2018-11-29T08:37:20.009Z,99.90
2018-11-29T08:39:53.048Z,99.90
2018-11-29T08:42:23.021Z,99.90
2018-11-29T08:44:53.937Z,99.90
2018-11-29T08:47:24.877Z,99.90
2018-11-29T08:50:06.275Z,99.90
2018-11-29T08:52:36.289Z,99.90
2018-11-29T08:55:08.969Z,99.90
2018-11-29T08:57:42.349Z,99.90
2018-11-29T09:00:20.586Z,99.90
2018-11-29T09:02:52.569Z,99.90
2018-11-29T09:05:23.421Z,99.90
2018-11-29T09:07:55.253Z,92.80
2018-11-29T09:10:31.579Z,93.00
2018-11-29T09:12:55.976Z,96.30
2018-11-29T09:15:25.857Z,99.20
2018-11-29T09:17:57.697Z,99.90
2018-11-29T09:20:29.528Z,99.90
2018-11-29T09:23:00.416Z,95.80
2018-11-29T09:25:30.292Z,91.20
2018-11-29T09:28:00.153Z,87.50
2018-11-29T09:30:30.008Z,84.10
2018-11-29T09:33:00.169Z,87.30
2018-11-29T09:35:31.031Z,92.00
2018-11-29T09:38:05.017Z,91.60
2018-11-29T09:40:35.880Z,81.10
2018-11-29T09:43:07.809Z,80.80
2018-11-29T09:45:44.945Z,77.70
2018-11-29T09:48:22.698Z,75.60
2018-11-29T09:50:58.705Z,71.60
2018-11-29T09:53:30.509Z,70.40
2018-11-29T09:56:00.397Z,68.90
2018-11-29T09:58:33.725Z,65.90
2018-11-29T10:01:05.689Z,64.80
2018-11-29T10:03:36.646Z,62.10
2018-11-29T10:06:07.741Z,59.50
2018-11-29T10:08:37.785Z,58.20
2018-11-29T10:11:09.670Z,57.90
2018-11-29T10:13:46.200Z,57.70
2018-11-29T10:16:18.993Z,57.00
2018-11-29T10:18:52.533Z,57.10
2018-11-29T10:21:22.458Z,57.60
2018-11-29T10:23:54.397Z,57.30
2018-11-29T10:26:49.694Z,57.40
2018-11-29T10:29:23.762Z,56.40
2018-11-29T10:31:53.725Z,56.30
2018-11-29T10:34:23.626Z,54.10
2018-11-29T10:36:53.534Z,53.50
2018-11-29T10:39:23.372Z,52.20
2018-11-29T10:41:53.313Z,50.20
2018-11-29T10:44:23.218Z,50.00
2018-11-29T10:46:54.126Z,49.20
2018-11-29T10:49:27.090Z,48.90
2018-11-29T10:52:01.046Z,47.10
2018-11-29T10:54:35.082Z,47.50
2018-11-29T10:57:08.382Z,47.80
2018-11-29T10:59:42.166Z,47.70
2018-11-29T11:02:18.457Z,48.00
2018-11-29T11:04:48.393Z,47.60
2018-11-29T11:07:18.366Z,48.20
2018-11-29T11:09:52.163Z,47.00
2018-11-29T11:12:22.011Z,46.20
2018-11-29T11:14:51.878Z,45.40
2018-11-29T11:17:21.689Z,45.20
2018-11-29T11:19:51.550Z,45.80
2018-11-29T11:22:22.361Z,43.90
2018-11-29T11:24:54.250Z,45.00
2018-11-29T11:27:26.113Z,46.10
2018-11-29T11:29:56.029Z,46.40
2018-11-29T11:32:25.866Z,45.50
2018-11-29T11:34:56.693Z,45.40
2018-11-29T11:37:26.618Z,45.60
2018-11-29T11:39:58.110Z,45.20
2018-11-29T11:42:27.966Z,43.90
2018-11-29T11:44:58.922Z,43.20
2018-11-29T11:47:35.042Z,43.40
2018-11-29T11:50:14.354Z,43.40
2018-11-29T11:52:46.230Z,43.40
2018-11-29T11:55:20.170Z,41.60
2018-11-29T11:57:51.005Z,42.10
2018-11-29T12:00:28.262Z,41.60
2018-11-29T12:03:08.030Z,40.40
2018-11-29T12:05:37.976Z,41.50
2018-11-29T12:08:12.682Z,42.40
2018-11-29T12:10:44.692Z,43.10
2018-11-29T12:13:18.374Z,42.30
2018-11-29T12:15:48.237Z,42.80
2018-11-29T12:18:22.018Z,43.30
2018-11-29T12:20:51.846Z,43.60
2018-11-29T12:23:21.666Z,44.80
2018-11-29T12:25:52.611Z,44.70
2018-11-29T12:28:22.534Z,43.40
2018-11-29T12:30:54.398Z,44.20
2018-11-29T12:33:25.222Z,43.70
2018-11-29T12:35:56.158Z,44.70
2018-11-29T12:38:26.083Z,45.30
2018-11-29T12:40:57.946Z,45.30
2018-11-29T12:43:31.498Z,45.40
2018-11-29T12:46:01.442Z,46.30
2018-11-29T12:48:32.370Z,47.10
2018-11-29T12:51:02.194Z,47.80
2018-11-29T12:53:33.118Z,49.30
2018-11-29T12:56:10.214Z,50.00
2018-11-29T12:58:44.623Z,51.20
2018-11-29T13:01:14.426Z,52.20
2018-11-29T13:03:44.371Z,52.90
2018-11-29T13:06:14.218Z,53.60
2018-11-29T13:08:44.110Z,53.30
2018-11-29T13:11:13.960Z,54.30
2018-11-29T13:13:43.802Z,54.60
2018-11-29T13:16:17.679Z,55.00
2018-11-29T13:18:51.631Z,56.10
2018-11-29T13:21:22.462Z,56.80
2018-11-29T13:23:52.430Z,56.60
2018-11-29T13:26:24.274Z,56.70
2018-11-29T13:28:57.314Z,56.00
2018-11-29T13:31:33.498Z,56.90
2018-11-29T13:34:09.202Z,57.10
2018-11-29T13:36:39.162Z,57.80
2018-11-29T13:39:10.407Z,57.60
2018-11-29T13:41:44.506Z,57.40
2018-11-29T13:44:14.439Z,57.10
2018-11-29T13:46:48.354Z,56.80
2018-11-29T13:49:21.538Z,57.10
2018-11-29T13:51:56.978Z,57.40
2018-11-29T13:54:37.841Z,57.60
2018-11-29T13:57:07.750Z,57.70
2018-11-29T13:59:39.678Z,57.70
2018-11-29T14:02:10.561Z,56.90
2018-11-29T14:04:47.104Z,56.40
2018-11-29T14:07:17.974Z,55.30
2018-11-29T14:09:47.838Z,55.70
2018-11-29T14:12:20.986Z,54.80
2018-11-29T14:14:51.922Z,53.90
2018-11-29T14:17:21.757Z,53.60
2018-11-29T14:19:58.106Z,53.00
2018-11-29T14:22:31.458Z,53.00
2018-11-29T14:25:02.388Z,53.10
2018-11-29T14:27:36.110Z,52.40
2018-11-29T14:30:17.398Z,51.50
2018-11-29T14:33:00.934Z,51.40
2018-11-29T14:35:41.845Z,51.80
2018-11-29T14:38:20.714Z,50.90
2018-11-29T14:40:58.458Z,51.00
2018-11-29T14:43:29.361Z,50.80
2018-11-29T14:45:59.214Z,50.40
2018-11-29T14:48:29.066Z,51.40
2018-11-29T14:51:08.863Z,51.40
2018-11-29T14:53:42.313Z,50.60
2018-11-29T14:56:13.262Z,51.50
2018-11-29T14:58:51.406Z,50.60
2018-11-29T15:01:21.402Z,50.80
2018-11-29T15:03:51.266Z,50.40
2018-11-29T15:06:21.090Z,50.10
2018-11-29T15:08:56.739Z,50.40
2018-11-29T15:11:46.170Z,50.50
2018-11-29T15:14:17.993Z,50.90
2018-11-29T15:16:46.958Z,50.70
2018-11-29T15:19:18.768Z,50.70
2018-11-29T15:21:50.749Z,49.90
2018-11-29T15:24:20.609Z,50.70
2018-11-29T15:26:53.714Z,51.20
2018-11-29T15:29:23.662Z,50.90
2018-11-29T15:31:58.653Z,50.60
2018-11-29T15:34:42.490Z,50.60
2018-11-29T15:37:12.314Z,51.20
2018-11-29T15:39:43.223Z,51.50
2018-11-29T15:42:14.058Z,52.10
2018-11-29T15:44:44.910Z,52.00
2018-11-29T15:47:14.778Z,52.60
2018-11-29T15:49:50.282Z,52.70
2018-11-29T15:52:21.374Z,53.20
2018-11-29T15:54:54.686Z,53.90
2018-11-29T15:57:34.739Z,54.30
2018-11-29T16:00:01.799Z,54.60
2018-11-29T16:02:45.110Z,54.30
2018-11-29T16:05:14.932Z,55.00
2018-11-29T16:07:44.790Z,55.20
2018-11-29T16:10:22.454Z,55.50
2018-11-29T16:12:52.342Z,56.50
2018-11-29T16:15:22.421Z,57.00
2018-11-29T16:17:53.966Z,57.70
2018-11-29T16:20:34.775Z,58.40
2018-11-29T16:23:09.406Z,58.70
2018-11-29T16:25:41.234Z,59.30
2018-11-29T16:28:17.856Z,60.50
2018-11-29T16:30:50.852Z,60.70
2018-11-29T16:33:39.342Z,61.50
2018-11-29T16:36:11.162Z,62.90
2018-11-29T16:38:45.679Z,63.50
2018-11-29T16:41:16.610Z,63.90
2018-11-29T16:43:46.502Z,64.50
2018-11-29T16:46:21.298Z,65.30
2018-11-29T16:49:04.350Z,65.80
2018-11-29T16:51:35.162Z,66.10
2018-11-29T16:54:10.838Z,66.70
2018-11-29T16:56:40.757Z,67.50
2018-11-29T16:59:11.702Z,68.20
2018-11-29T17:01:49.323Z,69.60
2018-11-29T17:04:20.126Z,70.40
2018-11-29T17:06:50.929Z,70.60
2018-11-29T17:09:21.754Z,71.70
2018-11-29T17:12:00.220Z,71.90
2018-11-29T17:14:28.818Z,74.40
2018-11-29T17:17:00.762Z,74.50
2018-11-29T17:19:30.698Z,77.30
2018-11-29T17:22:00.558Z,77.10
2018-11-29T17:24:31.470Z,80.50
2018-11-29T17:27:02.382Z,83.20
2018-11-29T17:29:36.038Z,85.20
2018-11-29T17:32:06.530Z,87.40
2018-11-29T17:34:37.329Z,90.40
2018-11-29T17:37:09.178Z,91.90
2018-11-29T17:39:43.482Z,91.30
2018-11-29T17:42:15.333Z,91.50
2018-11-29T17:44:47.406Z,92.00
2018-11-29T17:47:19.302Z,92.60
2018-11-29T17:49:51.230Z,91.90
2018-11-29T17:52:24.127Z,93.50
2018-11-29T17:54:55.034Z,94.10
2018-11-29T17:57:24.858Z,93.30
2018-11-29T17:59:54.788Z,93.60
2018-11-29T18:02:24.711Z,92.90
2018-11-29T18:04:56.578Z,94.60
2018-11-29T18:07:28.497Z,92.80
2018-11-29T18:09:58.458Z,92.10
2018-11-29T18:12:28.422Z,91.20
2018-11-29T18:14:59.266Z,91.60
2018-11-29T18:17:32.582Z,90.70
2018-11-29T18:20:02.626Z,91.20
2018-11-29T18:22:32.338Z,91.30
2018-11-29T18:25:09.467Z,90.90
2018-11-29T18:27:39.963Z,88.50
2018-11-29T18:30:13.406Z,87.20
2018-11-29T18:32:43.250Z,86.60
2018-11-29T18:35:15.659Z,84.90
2018-11-29T18:37:45.594Z,86.40
2018-11-29T18:40:20.797Z,83.30
2018-11-29T18:42:56.369Z,82.30
2018-11-29T18:45:26.286Z,85.20
2018-11-29T18:47:57.302Z,86.50
2018-11-29T18:50:28.121Z,84.50
2018-11-29T18:53:01.054Z,84.60
2018-11-29T18:55:30.977Z,83.70
2018-11-29T18:58:00.874Z,82.70
2018-11-29T19:00:36.085Z,81.00
2018-11-29T19:03:08.202Z,80.50
2018-11-29T19:05:39.006Z,79.90
2018-11-29T19:08:10.170Z,79.40
2018-11-29T19:10:44.641Z,81.00
2018-11-29T19:13:18.517Z,81.80
2018-11-29T19:15:48.361Z,82.20
2018-11-29T19:18:18.202Z,85.10
2018-11-29T19:20:49.073Z,84.60
2018-11-29T19:23:19.985Z,87.00
2018-11-29T19:25:51.769Z,85.90
2018-11-29T19:28:21.721Z,88.20
2018-11-29T19:30:58.869Z,86.90
2018-11-29T19:33:33.397Z,87.80
2018-11-29T19:36:03.306Z,91.30
2018-11-29T19:38:33.214Z,90.90
2018-11-29T19:41:07.378Z,90.40
2018-11-29T19:43:38.202Z,91.30
2018-11-29T19:46:14.119Z,90.60
2018-11-29T19:48:44.942Z,90.80
2018-11-29T19:51:19.857Z,91.50
2018-11-29T19:53:49.740Z,90.40
2018-11-29T19:56:19.618Z,90.70
2018-11-29T19:58:50.694Z,90.80
2018-11-29T20:01:20.825Z,91.40
2018-11-29T20:03:50.986Z,90.30
2018-11-29T20:06:27.187Z,91.20
2018-11-29T20:08:58.210Z,91.00
2018-11-29T20:11:28.214Z,90.10
2018-11-29T20:14:04.935Z,89.80
2018-11-29T20:16:38.794Z,92.20
2018-11-29T20:19:13.289Z,92.20
2018-11-29T20:21:43.221Z,92.50
2018-11-29T20:24:13.317Z,92.70
2018-11-29T20:26:43.518Z,93.00
2018-11-29T20:29:15.470Z,94.00
2018-11-29T20:31:45.399Z,94.40
2018-11-29T20:34:15.261Z,94.20
2018-11-29T20:36:45.214Z,95.30
2018-11-29T20:39:16.359Z,96.30
2018-11-29T20:41:46.242Z,96.30
2018-11-29T20:44:17.062Z,97.30
2018-11-29T20:46:50.670Z,96.70
2018-11-29T20:49:20.728Z,95.10
2018-11-29T20:51:51.790Z,94.70
2018-11-29T20:54:21.750Z,94.90
2018-11-29T20:56:51.658Z,95.60
2018-11-29T20:59:28.758Z,96.60
2018-11-29T21:02:03.910Z,97.40
2018-11-29T21:04:37.062Z,97.60
2018-11-29T21:07:08.962Z,97.50
2018-11-29T21:09:38.802Z,98.10
2018-11-29T21:12:08.746Z,97.80
2018-11-29T21:14:39.709Z,99.00
2018-11-29T21:17:09.646Z,98.90
2018-11-29T21:19:42.990Z,98.80
2018-11-29T21:22:14.946Z,98.80
2018-11-29T21:24:45.057Z,99.10
2018-11-29T21:27:15.921Z,99.60
2018-11-29T21:29:45.819Z,99.20
2018-11-29T21:32:15.749Z,99.70
2018-11-29T21:34:45.701Z,99.50
2018-11-29T21:37:15.922Z,99.80
2018-11-29T21:39:59.939Z,99.90
2018-11-29T21:42:32.914Z,99.90
2018-11-29T21:45:07.698Z,99.90
2018-11-29T21:47:37.535Z,99.10
2018-11-29T21:50:09.649Z,98.90
2018-11-29T21:52:39.666Z,99.40
2018-11-29T21:55:10.603Z,99.90
2018-11-29T21:57:40.467Z,99.90
2018-11-29T22:00:17.110Z,99.90
2018-11-29T22:02:53.182Z,99.90
2018-11-29T22:05:23.154Z,99.90
2018-11-29T22:07:53.113Z,99.90
2018-11-29T22:10:25.029Z,99.90
2018-11-29T22:12:55.953Z,99.90
2018-11-29T22:15:25.830Z,99.90
2018-11-29T22:18:20.566Z,99.90
2018-11-29T22:20:56.341Z,99.90
2018-11-29T22:23:26.244Z,99.90
2018-11-29T22:26:11.357Z,99.90
2018-11-29T22:28:42.471Z,99.90
2018-11-29T22:31:12.445Z,99.90
2018-11-29T22:33:43.274Z,99.90
2018-11-29T22:36:14.311Z,99.90
2018-11-29T22:38:51.925Z,99.90
2018-11-29T22:41:27.033Z,99.90
2018-11-29T22:44:00.993Z,99.90
2018-11-29T22:46:30.873Z,99.90
2018-11-29T22:49:00.777Z,99.90
2018-11-29T22:51:32.675Z,99.90
2018-11-29T22:54:02.681Z,99.90
2018-11-29T22:56:35.852Z,99.90
2018-11-29T22:59:07.482Z,99.90
2018-11-29T23:01:37.429Z,99.90
2018-11-29T23:04:10.542Z,99.90
2018-11-29T23:06:41.446Z,99.90
2018-11-29T23:09:11.390Z,99.90
2018-11-29T23:11:42.382Z,99.90
2018-11-29T23:14:12.297Z,99.90
2018-11-29T23:16:45.811Z,99.90
2018-11-29T23:19:15.727Z,99.90
2018-11-29T23:21:46.665Z,99.90
2018-11-29T23:24:16.563Z,99.90
2018-11-29T23:26:46.507Z,99.90
2018-11-29T23:29:18.322Z,99.90
2018-11-29T23:31:49.190Z,99.90
2018-11-29T23:34:24.656Z,99.90
2018-11-29T23:36:54.538Z,99.90
2018-11-29T23:39:25.490Z,99.90
2018-11-29T23:41:55.406Z,99.90
2018-11-29T23:44:25.358Z,99.90
2018-11-29T23:46:57.238Z,99.90
2018-11-29T23:49:27.158Z,99.90
2018-11-29T23:52:00.479Z,99.90
2018-11-29T23:54:31.390Z,99.90
2018-11-29T23:57:02.266Z,99.90
2018-11-29T23:59:32.158Z,99.90
